Current | Forecast
Updated: 10:00 PM JST on August 16, 2017
Observed at Komatsu AB, Japan
Temperature 77°F
Humidity 83%
Dew Point 72°F
Wind Variable at 2 mph
Pressure 29.71 in (Steady)
Conditions Mostly Cloudy
Visibility 6.2 miles
UV 0 out of 16
Clouds (FEW) : 1500 ft
Mostly Cloudy (BKN) : 2500 ft
Yesterday's Maximum 82°F
Yesterday's Minimum 73°F approx.
Yesterday's Cooling Degree Days 13 approx.
Sunrise5:09 AM JST
Sunset6:40 PM JST
Moon Rise
Moon Set1:32 PM JST
Moon PhaseMoon Phase
Waning Crescent
Raw METARMETAR RJNK 161300Z VRB02KT 9999 FEW015 BKN025 25/22 Q1006


Monday
. High: 75° F.
Tuesday
. High: 71° F.
Wednesday
. High: 71° F.
Thursday
. High: 73° F.
Friday
. High: 78° F.
Saturday
. High: 73° F.
Sunday
. High: 75° F.
Monday
. High: 75° F.

Units: English | Metric

Find the Weather for any City, State or Zipcode, or Country:

U.S. State List | Severe Weather | Tropical Storms | Ski Conditions
United States | Canada | Central America | South America | Asia | Europe | Australia | Africa | Islands

Weather Underground

© Copyright 2017
The Weather Company, LLC